KPOU/POU METAR and TAF weather

Enter ICAO airport designator
Station Type Date Time Source
KPOU METAR 2021/07/26 12:24 UTC NOAA

KPOU 261224Z 00000KT 7SM BKN006 22/19 A2990 RMK AO2 T02170194


Station Type Date Time Source
KPOU Decoded METAR 2021/07/26 12:24 UTC NOAA

POUGHKEEPSIE DUTCHESS CTY, NY, United States (KPOU) 41-38N 073-53W 46M
Jul 26, 2021 - 08:24 AM EDT / 2021.07.26 1224 UTC
Wind: Calm:0
Visibility: 7 mile(s):0
Sky conditions: mostly cloudy
Temperature: 71.1 F (21.7 C)
Dew Point: 66.9 F (19.4 C)
Relative Humidity: 86%
Pressure (altimeter): 29.9 in. Hg (1012 hPa)
ob: KPOU 261224Z 00000KT 7SM BKN006 22/19 A2990 RMK AO2 T02170194
cycle: 12

Station Type Date Time Source
KPOU TAF 2021/07/26 12:34 UTC NOAA

TAF KPOU 261132Z 2612/2712 00000KT 3SM BR SCT002
TEMPO 2612/2614 1SM BR VV002
FM261400 30008KT P6SM FEW060 FEW250
FM262300 VRB03KT P6SM SCT250
FM270300 00000KT P6SM FEW250

Example: see airport list